createdAt,value
2018-10-16T00:00:29.149Z,15.00
2018-10-16T00:03:00.517Z,15.00
2018-10-16T00:05:31.640Z,15.00
2018-10-16T00:08:03.141Z,15.00
2018-10-16T00:10:39.463Z,15.10
2018-10-16T00:13:11.737Z,15.00
2018-10-16T00:15:43.380Z,15.00
2018-10-16T00:18:14.513Z,15.00
2018-10-16T00:20:45.685Z,15.10
2018-10-16T00:23:16.916Z,15.20
2018-10-16T00:25:48.271Z,15.20
2018-10-16T00:28:19.473Z,15.20
2018-10-16T00:30:50.997Z,15.20
2018-10-16T00:33:22.389Z,15.20
2018-10-16T00:35:53.892Z,15.20
2018-10-16T00:38:25.221Z,15.20
2018-10-16T00:40:56.387Z,15.10
2018-10-16T00:43:27.567Z,15.30
2018-10-16T00:45:59.431Z,15.20
2018-10-16T00:48:31.024Z,15.20
2018-10-16T00:51:02.180Z,15.30
2018-10-16T00:53:33.822Z,15.20
2018-10-16T00:56:05.144Z,15.10
2018-10-16T00:58:36.527Z,15.10
2018-10-16T01:01:08.139Z,15.10
2018-10-16T01:03:39.268Z,15.10
2018-10-16T01:06:10.276Z,15.20
2018-10-16T01:08:41.477Z,15.20
2018-10-16T01:11:12.462Z,15.20
2018-10-16T01:13:43.659Z,15.30
2018-10-16T01:16:14.737Z,15.20
2018-10-16T01:18:46.316Z,15.20
2018-10-16T01:21:17.688Z,15.10
2018-10-16T01:23:49.293Z,15.10
2018-10-16T01:26:20.612Z,15.20
2018-10-16T01:28:51.993Z,15.20
2018-10-16T01:31:23.242Z,15.10
2018-10-16T01:33:54.863Z,15.10
2018-10-16T01:36:25.936Z,15.10
2018-10-16T01:38:56.947Z,15.20
2018-10-16T01:41:28.204Z,15.10
2018-10-16T01:43:59.333Z,15.20
2018-10-16T01:46:30.519Z,15.20
2018-10-16T01:49:01.556Z,15.10
2018-10-16T01:51:32.917Z,15.10
2018-10-16T01:54:03.913Z,15.20
2018-10-16T01:56:35.093Z,15.20
2018-10-16T01:59:06.692Z,15.20
2018-10-16T02:01:38.146Z,15.20
2018-10-16T02:04:09.344Z,15.30
2018-10-16T02:06:40.652Z,15.20
2018-10-16T02:09:13.302Z,15.20
2018-10-16T02:11:44.892Z,15.30
2018-10-16T02:14:16.213Z,15.30
2018-10-16T02:16:47.593Z,15.30
2018-10-16T02:19:18.769Z,15.30
2018-10-16T02:21:50.178Z,15.30
2018-10-16T02:24:22.205Z,15.20
2018-10-16T02:26:53.517Z,15.20
2018-10-16T02:29:24.692Z,15.20
2018-10-16T02:31:55.786Z,15.30
2018-10-16T02:34:27.088Z,15.20
2018-10-16T02:36:58.109Z,15.20
2018-10-16T02:39:29.465Z,15.30
2018-10-16T02:42:00.509Z,15.40
2018-10-16T02:44:32.371Z,15.40
2018-10-16T02:47:03.477Z,15.50
2018-10-16T02:49:34.652Z,15.40
2018-10-16T02:52:06.167Z,15.40
2018-10-16T02:54:37.349Z,15.30
2018-10-16T02:57:08.925Z,15.20
2018-10-16T02:59:40.464Z,15.30
2018-10-16T03:02:11.853Z,15.40
2018-10-16T03:04:43.169Z,15.40
2018-10-16T03:07:14.563Z,15.40
2018-10-16T03:09:46.218Z,15.30
2018-10-16T03:12:17.567Z,15.30
2018-10-16T03:14:48.925Z,15.30
2018-10-16T03:17:19.913Z,15.30
2018-10-16T03:19:51.107Z,15.40
2018-10-16T03:22:22.342Z,15.40
2018-10-16T03:24:54.275Z,15.40
2018-10-16T03:27:25.460Z,15.30
2018-10-16T03:29:56.450Z,15.30
2018-10-16T03:32:28.503Z,15.30
2018-10-16T03:34:59.645Z,15.30
2018-10-16T03:37:31.011Z,15.30
2018-10-16T03:40:02.165Z,15.40
2018-10-16T03:42:33.403Z,15.60
2018-10-16T03:45:04.952Z,15.40
2018-10-16T03:47:36.535Z,15.40
2018-10-16T03:50:08.200Z,15.30
2018-10-16T03:52:39.608Z,15.40
2018-10-16T03:55:11.465Z,15.40
2018-10-16T03:57:42.572Z,15.40
2018-10-16T04:00:13.920Z,15.40
2018-10-16T04:02:45.149Z,15.40
2018-10-16T04:05:16.293Z,15.40
2018-10-16T04:07:47.497Z,15.30
2018-10-16T04:10:18.860Z,15.30
2018-10-16T04:12:50.292Z,15.40
2018-10-16T04:15:21.689Z,15.40
2018-10-16T04:17:53.142Z,15.40
2018-10-16T04:20:24.559Z,15.40
2018-10-16T04:22:55.865Z,15.30
2018-10-16T04:25:27.209Z,15.30
2018-10-16T04:27:58.739Z,15.20
2018-10-16T04:30:29.764Z,15.30
2018-10-16T04:33:00.980Z,15.30
2018-10-16T04:35:32.344Z,15.30
2018-10-16T04:38:03.592Z,15.30
2018-10-16T04:40:34.929Z,15.30
2018-10-16T04:43:06.643Z,15.30
2018-10-16T04:45:37.991Z,15.40
2018-10-16T04:48:09.237Z,15.50
2018-10-16T04:50:40.327Z,15.40
2018-10-16T04:53:11.570Z,15.40
2018-10-16T04:55:42.880Z,15.40
2018-10-16T04:58:14.066Z,15.30
2018-10-16T05:00:45.068Z,15.50
2018-10-16T05:03:16.260Z,15.50
2018-10-16T05:05:47.923Z,15.50
2018-10-16T05:08:19.252Z,15.50
2018-10-16T05:10:50.418Z,15.50
2018-10-16T05:13:21.702Z,15.40
2018-10-16T05:15:52.849Z,15.50
2018-10-16T05:18:24.019Z,15.50
2018-10-16T05:20:55.660Z,15.50
2018-10-16T05:23:27.202Z,15.50
2018-10-16T05:25:58.413Z,15.50
2018-10-16T05:28:29.553Z,15.50
2018-10-16T05:31:00.834Z,15.50
2018-10-16T05:33:32.142Z,15.40
2018-10-16T05:36:03.230Z,15.40
2018-10-16T05:38:34.515Z,15.50
2018-10-16T05:41:05.679Z,15.50
2018-10-16T05:43:36.716Z,15.50
2018-10-16T05:46:08.002Z,15.50
2018-10-16T05:48:39.299Z,15.50
2018-10-16T05:51:10.597Z,15.50
2018-10-16T05:53:41.701Z,15.50
2018-10-16T05:56:12.900Z,15.40
2018-10-16T05:58:45.067Z,15.40
2018-10-16T06:01:16.422Z,15.50
2018-10-16T06:03:47.420Z,15.50
2018-10-16T06:06:18.832Z,15.40
2018-10-16T06:08:50.196Z,15.40
2018-10-16T06:11:21.193Z,15.40
2018-10-16T06:13:52.868Z,15.40
2018-10-16T06:16:24.460Z,15.40
2018-10-16T06:18:55.588Z,15.40
2018-10-16T06:21:26.797Z,15.30
2018-10-16T06:23:57.948Z,15.40
2018-10-16T06:26:29.158Z,15.40
2018-10-16T06:29:00.522Z,15.40
2018-10-16T06:31:31.709Z,15.50
2018-10-16T06:34:02.975Z,15.50
2018-10-16T06:36:34.281Z,15.50
2018-10-16T06:39:06.489Z,15.60
2018-10-16T06:41:37.895Z,15.60
2018-10-16T06:44:09.472Z,15.60
2018-10-16T06:46:40.874Z,15.60
2018-10-16T06:49:12.047Z,15.60
2018-10-16T06:51:43.688Z,15.70
2018-10-16T06:54:15.694Z,15.60
2018-10-16T06:56:47.136Z,15.50
2018-10-16T06:59:18.361Z,15.40
2018-10-16T07:01:49.548Z,15.40
2018-10-16T07:04:21.525Z,15.40
2018-10-16T07:06:54.310Z,15.40
2018-10-16T07:09:25.660Z,15.40
2018-10-16T07:11:56.888Z,15.40
2018-10-16T07:14:28.415Z,15.50
2018-10-16T07:16:59.755Z,15.50
2018-10-16T07:19:30.838Z,15.50
2018-10-16T07:22:02.592Z,15.60
2018-10-16T07:24:33.836Z,15.50
2018-10-16T07:27:05.155Z,15.50
2018-10-16T07:29:36.859Z,15.50
2018-10-16T07:32:08.829Z,15.60
2018-10-16T07:34:40.000Z,15.60
2018-10-16T07:37:11.212Z,15.60
2018-10-16T07:39:42.325Z,15.60
2018-10-16T07:42:13.594Z,15.70
2018-10-16T07:44:44.751Z,15.80
2018-10-16T07:47:16.099Z,15.80
2018-10-16T07:49:47.335Z,15.90
2018-10-16T07:52:18.737Z,15.80
2018-10-16T07:54:49.928Z,15.80
2018-10-16T07:57:21.603Z,15.80
2018-10-16T07:59:53.136Z,15.90
2018-10-16T08:02:24.766Z,16.00
2018-10-16T08:04:56.045Z,16.00
2018-10-16T08:07:27.448Z,16.00
2018-10-16T08:09:59.761Z,16.00
2018-10-16T08:12:30.816Z,15.90
2018-10-16T08:15:02.181Z,16.00
2018-10-16T08:17:34.137Z,16.10
2018-10-16T08:20:05.470Z,16.20
2018-10-16T08:22:36.978Z,16.20
2018-10-16T08:25:08.496Z,16.20
2018-10-16T08:27:39.576Z,16.20
2018-10-16T08:30:11.546Z,16.10
2018-10-16T08:32:42.900Z,16.10
2018-10-16T08:35:14.276Z,16.30
2018-10-16T08:39:55.424Z,16.40
2018-10-16T08:42:53.568Z,16.50
2018-10-16T08:45:40.636Z,16.70
2018-10-16T08:48:27.885Z,16.90
2018-10-16T08:51:14.811Z,17.00
2018-10-16T08:53:46.360Z,17.00
2018-10-16T08:56:17.721Z,17.10
2018-10-16T08:58:49.059Z,17.20
2018-10-16T09:01:20.444Z,17.30
2018-10-16T09:03:51.673Z,17.30
2018-10-16T09:06:23.043Z,17.40
2018-10-16T09:08:54.461Z,17.50
2018-10-16T09:11:25.857Z,17.30
2018-10-16T09:13:57.272Z,17.60
2018-10-16T09:16:28.613Z,17.70
2018-10-16T09:18:59.992Z,17.90
2018-10-16T09:21:31.854Z,17.90
2018-10-16T09:24:03.048Z,17.50
2018-10-16T09:26:34.197Z,17.40
2018-10-16T09:29:05.603Z,17.40
2018-10-16T09:31:36.916Z,17.40
2018-10-16T09:34:08.571Z,17.60
2018-10-16T09:36:39.867Z,17.60
2018-10-16T09:39:12.181Z,17.90
2018-10-16T09:41:43.277Z,18.10
2018-10-16T09:44:14.683Z,18.30
2018-10-16T09:46:46.035Z,18.30
2018-10-16T09:49:17.420Z,18.50
2018-10-16T09:51:48.400Z,18.60
2018-10-16T09:54:20.776Z,18.70
2018-10-16T09:56:51.778Z,18.70
2018-10-16T09:59:22.877Z,18.80
2018-10-16T10:01:55.508Z,18.80
2018-10-16T10:04:26.793Z,18.90
2018-10-16T10:06:58.602Z,19.10
2018-10-16T10:09:30.163Z,19.40
2018-10-16T10:12:01.512Z,19.40
2018-10-16T10:14:32.688Z,19.30
2018-10-16T10:17:03.936Z,19.20
2018-10-16T10:19:35.084Z,19.10
2018-10-16T10:22:06.288Z,19.30
2018-10-16T10:24:37.739Z,19.20
2018-10-16T10:27:09.041Z,19.20
2018-10-16T10:29:40.726Z,19.20
2018-10-16T10:32:11.979Z,18.90
2018-10-16T10:34:43.223Z,18.90
2018-10-16T10:37:14.552Z,19.00
2018-10-16T10:39:45.773Z,19.00
2018-10-16T10:42:17.514Z,19.00
2018-10-16T10:44:48.986Z,19.00
2018-10-16T10:47:20.126Z,19.30
2018-10-16T10:49:51.609Z,20.00
2018-10-16T10:52:23.001Z,20.50
2018-10-16T10:54:54.887Z,21.20
2018-10-16T10:57:26.089Z,20.60
2018-10-16T10:59:57.522Z,19.90
2018-10-16T11:02:28.732Z,19.90
2018-10-16T11:05:00.060Z,19.90
2018-10-16T11:07:31.699Z,20.40
2018-10-16T11:10:02.853Z,20.80
2018-10-16T11:12:34.036Z,20.80
2018-10-16T11:15:06.149Z,21.80
2018-10-16T11:17:37.958Z,22.70
2018-10-16T11:20:11.259Z,22.80
2018-10-16T11:22:43.159Z,22.70
2018-10-16T11:25:14.573Z,23.70
2018-10-16T11:27:45.683Z,24.00
2018-10-16T11:30:17.130Z,23.90
2018-10-16T11:32:48.319Z,24.20
2018-10-16T11:35:19.650Z,24.60
2018-10-16T11:37:50.842Z,24.80
2018-10-16T11:40:22.088Z,24.70
2018-10-16T11:42:53.452Z,23.60
2018-10-16T11:45:24.851Z,23.00
2018-10-16T11:47:56.003Z,22.80
2018-10-16T11:50:27.195Z,22.70
2018-10-16T11:52:59.242Z,22.70
2018-10-16T11:55:30.675Z,22.10
2018-10-16T11:58:02.196Z,22.90
2018-10-16T12:00:33.544Z,22.90
2018-10-16T12:03:04.590Z,22.60
2018-10-16T12:05:35.733Z,22.60
2018-10-16T12:08:07.181Z,22.60
2018-10-16T12:10:38.562Z,22.50
2018-10-16T12:13:09.856Z,22.60
2018-10-16T12:15:41.092Z,22.70
2018-10-16T12:18:17.405Z,22.40
2018-10-16T12:20:54.060Z,22.00
2018-10-16T12:23:25.331Z,22.30
2018-10-16T12:25:56.989Z,22.60
2018-10-16T12:28:28.219Z,22.40
2018-10-16T12:30:59.422Z,21.90
2018-10-16T12:33:30.824Z,22.10
2018-10-16T12:36:02.021Z,22.10
2018-10-16T12:38:33.513Z,21.80
2018-10-16T12:41:04.864Z,21.80
2018-10-16T12:43:36.147Z,21.80
2018-10-16T12:46:07.291Z,21.80
2018-10-16T12:48:38.869Z,21.60
2018-10-16T12:51:10.012Z,21.90
2018-10-16T12:53:41.172Z,22.10
2018-10-16T12:56:12.740Z,22.40
2018-10-16T12:58:43.913Z,23.30
2018-10-16T13:01:14.937Z,23.80
2018-10-16T13:03:46.284Z,23.90
2018-10-16T13:06:17.490Z,23.70
2018-10-16T13:08:48.693Z,23.20
2018-10-16T13:11:20.073Z,23.00
2018-10-16T13:13:51.321Z,23.00
2018-10-16T13:16:22.640Z,22.90
2018-10-16T13:18:53.660Z,23.20
2018-10-16T13:21:24.929Z,23.90
2018-10-16T13:23:56.241Z,24.10
2018-10-16T13:26:27.671Z,23.90
2018-10-16T13:28:59.096Z,23.30
2018-10-16T13:31:30.457Z,23.10
2018-10-16T13:34:01.833Z,22.40
2018-10-16T13:36:33.167Z,21.90
2018-10-16T13:39:05.423Z,21.70
2018-10-16T13:41:36.988Z,22.00
2018-10-16T13:44:08.190Z,22.30
2018-10-16T13:46:39.139Z,22.80
2018-10-16T13:49:10.770Z,22.40
2018-10-16T13:51:42.077Z,22.20
2018-10-16T13:54:13.260Z,22.00
2018-10-16T13:56:44.566Z,21.90
2018-10-16T13:59:15.959Z,21.80
2018-10-16T14:01:47.319Z,22.30
2018-10-16T14:04:18.687Z,22.90
2018-10-16T14:06:50.012Z,23.10
2018-10-16T14:09:21.215Z,23.10
2018-10-16T14:11:52.401Z,23.10
2018-10-16T14:14:23.608Z,23.00
2018-10-16T14:16:54.663Z,22.70
2018-10-16T14:19:26.032Z,22.90
2018-10-16T14:21:57.346Z,23.20
2018-10-16T14:24:28.810Z,23.30
2018-10-16T14:27:00.503Z,23.30
2018-10-16T14:29:32.010Z,23.20
2018-10-16T14:32:03.444Z,23.10
2018-10-16T14:34:35.720Z,22.90
2018-10-16T14:37:07.116Z,22.70
2018-10-16T14:39:38.280Z,22.30
2018-10-16T14:42:09.672Z,22.00
2018-10-16T14:44:40.923Z,21.70
2018-10-16T14:47:12.268Z,21.50
2018-10-16T14:49:43.630Z,21.50
2018-10-16T14:52:14.880Z,21.50
2018-10-16T14:54:46.017Z,21.60
2018-10-16T14:57:17.240Z,21.70
2018-10-16T14:59:48.707Z,21.80
2018-10-16T15:02:20.001Z,21.90
2018-10-16T15:04:51.819Z,22.00
2018-10-16T15:07:23.131Z,22.20
2018-10-16T15:09:54.355Z,22.20
2018-10-16T15:12:33.325Z,22.20
2018-10-16T15:15:04.535Z,22.30
2018-10-16T15:17:35.611Z,22.20
2018-10-16T15:20:09.132Z,22.10
2018-10-16T15:22:40.220Z,21.80
2018-10-16T15:25:11.627Z,21.60
2018-10-16T15:27:42.906Z,21.50
2018-10-16T15:30:13.945Z,21.40
2018-10-16T15:32:46.482Z,21.30
2018-10-16T15:35:17.847Z,21.20
2018-10-16T15:37:49.039Z,21.20
2018-10-16T15:40:20.059Z,21.30
2018-10-16T15:42:57.569Z,21.20
2018-10-16T15:45:28.900Z,21.30
2018-10-16T15:48:00.188Z,21.20
2018-10-16T15:50:31.112Z,21.20
2018-10-16T15:53:02.926Z,21.20
2018-10-16T15:55:34.292Z,21.20
2018-10-16T15:58:06.365Z,21.10
2018-10-16T16:00:37.916Z,21.00
2018-10-16T16:03:09.224Z,20.90
2018-10-16T16:05:40.230Z,20.90
2018-10-16T16:08:11.446Z,20.90
2018-10-16T16:10:42.828Z,20.80
2018-10-16T16:13:14.469Z,20.70
2018-10-16T16:15:45.600Z,20.60
2018-10-16T16:18:17.984Z,20.50
2018-10-16T16:20:49.374Z,20.50
2018-10-16T16:23:21.084Z,20.40
2018-10-16T16:25:52.406Z,20.30
2018-10-16T16:28:23.986Z,20.30
2018-10-16T16:30:55.091Z,20.30
2018-10-16T16:33:26.748Z,20.20
2018-10-16T16:35:57.902Z,20.20
2018-10-16T16:38:29.823Z,20.10
2018-10-16T16:41:01.059Z,20.10
2018-10-16T16:43:32.456Z,20.10
2018-10-16T16:46:03.675Z,20.00
2018-10-16T16:48:34.786Z,19.90
2018-10-16T16:51:05.897Z,19.90
2018-10-16T16:53:38.041Z,19.90
2018-10-16T16:56:09.240Z,19.90
2018-10-16T16:58:40.536Z,19.80
2018-10-16T17:01:11.721Z,19.70
2018-10-16T17:03:42.723Z,19.70
2018-10-16T17:06:13.741Z,19.70
2018-10-16T17:08:45.579Z,19.70
2018-10-16T17:11:16.685Z,19.60
2018-10-16T17:13:47.689Z,19.60
2018-10-16T17:16:19.164Z,19.50
2018-10-16T17:18:50.278Z,19.50
2018-10-16T17:21:21.460Z,19.50
2018-10-16T17:23:52.772Z,19.40
2018-10-16T17:26:24.332Z,19.40
2018-10-16T17:28:55.420Z,19.30
2018-10-16T17:31:26.922Z,19.20
2018-10-16T17:33:58.272Z,19.20
2018-10-16T17:36:29.624Z,19.20
2018-10-16T17:39:01.096Z,19.20
2018-10-16T17:41:32.199Z,19.20
2018-10-16T17:44:03.369Z,19.10
2018-10-16T17:46:34.470Z,19.20
2018-10-16T17:49:05.829Z,19.20
2018-10-16T17:51:37.157Z,19.20
2018-10-16T17:54:08.307Z,19.20
2018-10-16T17:56:39.323Z,19.20
2018-10-16T17:59:10.520Z,19.10
2018-10-16T18:01:41.716Z,19.10
2018-10-16T18:04:12.903Z,19.10
2018-10-16T18:06:43.893Z,19.10
2018-10-16T18:09:15.073Z,19.00
2018-10-16T18:11:46.128Z,19.00
2018-10-16T18:14:17.547Z,18.90
2018-10-16T18:16:48.903Z,18.90
2018-10-16T18:19:20.244Z,18.90
2018-10-16T18:21:51.322Z,18.90
2018-10-16T18:24:23.236Z,18.90
2018-10-16T18:26:54.452Z,18.90
2018-10-16T18:29:26.102Z,18.90
2018-10-16T18:31:57.371Z,18.90
2018-10-16T18:34:28.588Z,18.80
2018-10-16T18:36:59.768Z,18.80
2018-10-16T18:39:31.235Z,18.80
2018-10-16T18:42:02.563Z,18.80
2018-10-16T18:44:34.028Z,18.80
2018-10-16T18:47:05.635Z,18.70
2018-10-16T18:49:37.784Z,18.80
2018-10-16T18:52:09.084Z,18.70
2018-10-16T18:54:40.616Z,18.60
2018-10-16T18:57:11.818Z,18.60
2018-10-16T18:59:43.079Z,18.60
2018-10-16T19:02:14.783Z,18.60
2018-10-16T19:04:45.828Z,18.60
2018-10-16T19:07:17.018Z,18.60
2018-10-16T19:09:48.461Z,18.70
2018-10-16T19:12:19.796Z,18.70
2018-10-16T19:14:51.003Z,18.70
2018-10-16T19:17:22.000Z,18.70
2018-10-16T19:19:53.239Z,18.70
2018-10-16T19:22:24.564Z,18.60
2018-10-16T19:24:56.147Z,18.60
2018-10-16T19:27:27.371Z,18.60
2018-10-16T19:29:58.743Z,18.50
2018-10-16T19:32:29.770Z,18.60
2018-10-16T19:35:00.934Z,18.60
2018-10-16T19:37:32.042Z,18.60
2018-10-16T19:40:03.180Z,18.50
2018-10-16T19:42:34.316Z,18.40
2018-10-16T19:45:05.889Z,18.40
2018-10-16T19:47:37.098Z,18.40
2018-10-16T19:50:09.240Z,18.40
2018-10-16T19:52:40.679Z,18.50
2018-10-16T19:55:12.119Z,18.40
2018-10-16T19:57:43.412Z,18.40
2018-10-16T20:00:14.635Z,18.40
2018-10-16T20:02:46.032Z,18.50
2018-10-16T20:05:17.669Z,18.40
2018-10-16T20:07:48.976Z,18.40
2018-10-16T20:10:20.823Z,18.40
2018-10-16T20:12:51.984Z,18.40
2018-10-16T20:15:23.608Z,18.40
2018-10-16T20:17:54.909Z,18.40
2018-10-16T20:20:26.096Z,18.30
2018-10-16T20:22:57.280Z,18.30
2018-10-16T20:25:28.425Z,18.30
2018-10-16T20:27:59.707Z,18.30
2018-10-16T20:30:30.900Z,18.30
2018-10-16T20:33:02.277Z,18.30
2018-10-16T20:35:33.758Z,18.30
2018-10-16T20:38:05.107Z,18.30
2018-10-16T20:40:36.455Z,18.30
2018-10-16T20:43:07.768Z,18.10
2018-10-16T20:45:38.857Z,18.10
2018-10-16T20:48:10.215Z,18.10
2018-10-16T20:50:41.604Z,18.00
2018-10-16T20:53:12.604Z,18.10
2018-10-16T20:55:43.850Z,18.00
2018-10-16T20:58:15.024Z,18.00
2018-10-16T21:00:47.073Z,18.00
2018-10-16T21:03:18.373Z,18.00
2018-10-16T21:05:49.642Z,17.90
2018-10-16T21:08:20.942Z,17.90
2018-10-16T21:10:52.640Z,17.90
2018-10-16T21:13:24.401Z,18.00
2018-10-16T21:15:55.707Z,17.90
2018-10-16T21:18:26.881Z,17.90
2018-10-16T21:20:58.264Z,17.90
2018-10-16T21:23:29.651Z,17.90
2018-10-16T21:26:00.968Z,17.90
2018-10-16T21:28:32.256Z,18.00
2018-10-16T21:31:04.150Z,18.10
2018-10-16T21:33:35.650Z,18.10
2018-10-16T21:36:07.231Z,18.10
2018-10-16T21:38:38.400Z,18.10
2018-10-16T21:41:09.681Z,18.10
2018-10-16T21:43:40.791Z,18.10
2018-10-16T21:46:12.140Z,18.10
2018-10-16T21:48:44.037Z,18.00
2018-10-16T21:51:15.785Z,18.00
2018-10-16T21:53:47.080Z,17.90
2018-10-16T21:56:18.115Z,18.00
2018-10-16T21:58:49.547Z,17.90
2018-10-16T22:01:25.384Z,17.90
2018-10-16T22:03:56.405Z,17.90
2018-10-16T22:06:27.781Z,17.90
2018-10-16T22:08:59.186Z,17.90
2018-10-16T22:11:30.497Z,17.90
2018-10-16T22:14:01.585Z,17.90
2018-10-16T22:16:32.939Z,17.80
2018-10-16T22:19:04.331Z,17.80
2018-10-16T22:21:35.608Z,17.70
2018-10-16T22:24:06.848Z,17.80
2018-10-16T22:26:38.234Z,17.70
2018-10-16T22:29:09.857Z,17.60
2018-10-16T22:31:41.100Z,17.60
2018-10-16T22:34:12.481Z,17.50
2018-10-16T22:36:43.899Z,17.40
2018-10-16T22:39:15.211Z,17.20
2018-10-16T22:41:46.293Z,17.10
2018-10-16T22:44:17.898Z,17.00
2018-10-16T22:46:49.028Z,17.00
2018-10-16T22:49:20.188Z,16.90
2018-10-16T22:51:51.210Z,16.90
2018-10-16T22:54:22.834Z,16.90
2018-10-16T22:56:54.025Z,16.80
2018-10-16T22:59:25.667Z,16.80
2018-10-16T23:01:56.756Z,16.70
2018-10-16T23:04:27.957Z,16.60
2018-10-16T23:06:59.924Z,16.70
2018-10-16T23:09:31.982Z,16.60
2018-10-16T23:12:03.290Z,16.50
2018-10-16T23:14:34.496Z,16.60
2018-10-16T23:17:05.910Z,16.60
2018-10-16T23:19:37.282Z,16.60
2018-10-16T23:22:08.629Z,16.40
2018-10-16T23:24:39.673Z,16.40
2018-10-16T23:27:11.341Z,16.50
2018-10-16T23:29:42.426Z,16.60
2018-10-16T23:32:13.844Z,16.50
2018-10-16T23:34:45.238Z,16.40
2018-10-16T23:37:16.719Z,16.30
2018-10-16T23:39:47.821Z,16.40
2018-10-16T23:42:19.425Z,16.30
2018-10-16T23:44:50.740Z,16.20
2018-10-16T23:47:21.971Z,16.10
2018-10-16T23:49:53.128Z,16.20
2018-10-16T23:52:24.316Z,16.20
2018-10-16T23:54:55.760Z,16.10
2018-10-16T23:57:26.924Z,16.10
2018-10-16T23:59:58.281Z,16.10
